CheckWX is a tool to help pilots better visualize weather data.  It is not intended as a substitute for an official pre-flight weather briefing.

02:15:54 UTC

KOGD METAR
Ogden-Hinckley Airport
Ogden, Utah, USA
Current

23 mins ago

KOGD 190153Z 04004KT 10SM CLR 20/01 A2981 RMK AO2 SLP058 T02000011
Observed
Sep-19 @ 01:53 UTC
Wind
  • 040° at 4 KTS
Visibility
10 SM
Flight Rules
VFR
Cloud Levels
  • Clear skies
Temperature
20°C / 68°F
Dewpoint
C / 34°F
Humidity
28%
Altimeter
29.81" Hg
Pressure
1009.52 hPa
Previous

1 hour ago

KOGD 190111Z 35007KT 10SM CLR 22/M01 A2982 RMK AO2 T02221006
Observed
Sep-19 @ 01:11 UTC
Wind
  • 350° at 7 KTS
Visibility
10 SM
Flight Rules
VFR
Cloud Levels
  • Clear skies
Temperature
22°C / 72°F
Dewpoint
-1°C / 30°F
Humidity
22%
Altimeter
29.82" Hg
Pressure
1009.82 hPa
Previous

1 hour ago

KOGD 190053Z 29005KT 10SM CLR 24/M03 A2982 RMK AO2 SLP058 T02391033
Observed
Sep-19 @ 00:53 UTC
Wind
  • 290° at 5 KTS
Visibility
10 SM
Flight Rules
VFR
Cloud Levels
  • Clear skies
Temperature
24°C / 75°F
Dewpoint
-3°C / 27°F
Humidity
16%
Altimeter
29.82" Hg
Pressure
1009.82 hPa